sensor_id;sensor_type;location;lat;lon;timestamp;P1;durP1;ratioP1;P2;durP2;ratioP2
7205;SDS011;3644;53.480;10.004;2023-10-09T00:00:32;3.63;;;2.50;;
7205;SDS011;3644;53.480;10.004;2023-10-09T00:03:05;2.57;;;2.37;;
7205;SDS011;3644;53.480;10.004;2023-10-09T00:05:31;3.17;;;2.57;;
7205;SDS011;3644;53.480;10.004;2023-10-09T00:08:17;6.33;;;3.17;;
7205;SDS011;3644;53.480;10.004;2023-10-09T00:10:46;5.37;;;2.60;;
7205;SDS011;3644;53.480;10.004;2023-10-09T00:13:21;4.73;;;2.83;;
7205;SDS011;3644;53.480;10.004;2023-10-09T00:15:56;5.30;;;2.60;;
7205;SDS011;3644;53.480;10.004;2023-10-09T00:18:26;5.03;;;2.57;;
7205;SDS011;3644;53.480;10.004;2023-10-09T00:20:55;3.90;;;2.83;;
7205;SDS011;3644;53.480;10.004;2023-10-09T00:23:37;2.73;;;2.40;;
7205;SDS011;3644;53.480;10.004;2023-10-09T00:26:04;9.77;;;2.70;;
7205;SDS011;3644;53.480;10.004;2023-10-09T00:28:33;2.80;;;2.57;;
7205;SDS011;3644;53.480;10.004;2023-10-09T00:31:12;2.70;;;2.50;;
7205;SDS011;3644;53.480;10.004;2023-10-09T00:33:50;3.93;;;2.43;;
7205;SDS011;3644;53.480;10.004;2023-10-09T00:36:17;9.10;;;2.60;;
7205;SDS011;3644;53.480;10.004;2023-10-09T00:38:52;4.13;;;2.90;;
7205;SDS011;3644;53.480;10.004;2023-10-09T00:41:18;5.53;;;3.23;;
7205;SDS011;3644;53.480;10.004;2023-10-09T00:43:49;3.17;;;2.80;;
7205;SDS011;3644;53.480;10.004;2023-10-09T00:46:16;3.70;;;2.50;;
7205;SDS011;3644;53.480;10.004;2023-10-09T00:48:43;2.57;;;2.37;;
7205;SDS011;3644;53.480;10.004;2023-10-09T00:51:12;7.33;;;3.03;;
7205;SDS011;3644;53.480;10.004;2023-10-09T00:53:45;4.00;;;3.33;;
7205;SDS011;3644;53.480;10.004;2023-10-09T00:56:19;4.80;;;2.90;;
7205;SDS011;3644;53.480;10.004;2023-10-09T00:58:50;4.00;;;2.87;;
7205;SDS011;3644;53.480;10.004;2023-10-09T01:01:21;11.10;;;3.13;;
7205;SDS011;3644;53.480;10.004;2023-10-09T01:04:13;5.53;;;2.33;;
7205;SDS011;3644;53.480;10.004;2023-10-09T01:06:44;4.30;;;2.23;;
7205;SDS011;3644;53.480;10.004;2023-10-09T01:09:12;8.83;;;2.50;;
7205;SDS011;3644;53.480;10.004;2023-10-09T01:11:39;3.73;;;2.70;;
7205;SDS011;3644;53.480;10.004;2023-10-09T01:14:28;4.10;;;2.40;;
7205;SDS011;3644;53.480;10.004;2023-10-09T01:16:55;5.13;;;2.47;;
7205;SDS011;3644;53.480;10.004;2023-10-09T01:19:22;5.40;;;2.73;;
7205;SDS011;3644;53.480;10.004;2023-10-09T01:21:50;4.33;;;2.67;;
7205;SDS011;3644;53.480;10.004;2023-10-09T01:24:16;3.67;;;2.47;;
7205;SDS011;3644;53.480;10.004;2023-10-09T01:26:45;6.00;;;2.20;;
7205;SDS011;3644;53.480;10.004;2023-10-09T01:29:15;2.57;;;2.13;;
7205;SDS011;3644;53.480;10.004;2023-10-09T01:31:44;4.47;;;2.97;;
7205;SDS011;3644;53.480;10.004;2023-10-09T01:34:21;5.83;;;2.47;;
7205;SDS011;3644;53.480;10.004;2023-10-09T01:37:01;5.70;;;2.63;;
7205;SDS011;3644;53.480;10.004;2023-10-09T01:39:30;5.83;;;2.60;;
7205;SDS011;3644;53.480;10.004;2023-10-09T01:41:56;5.33;;;2.47;;
7205;SDS011;3644;53.480;10.004;2023-10-09T01:44:25;2.87;;;1.90;;
7205;SDS011;3644;53.480;10.004;2023-10-09T01:46:53;3.43;;;2.27;;
7205;SDS011;3644;53.480;10.004;2023-10-09T01:49:23;3.10;;;2.70;;
7205;SDS011;3644;53.480;10.004;2023-10-09T01:51:56;4.87;;;2.27;;
7205;SDS011;3644;53.480;10.004;2023-10-09T01:54:26;2.23;;;1.77;;
7205;SDS011;3644;53.480;10.004;2023-10-09T01:57:05;3.60;;;2.10;;
7205;SDS011;3644;53.480;10.004;2023-10-09T01:59:34;2.80;;;1.60;;
7205;SDS011;3644;53.480;10.004;2023-10-09T02:02:06;5.27;;;2.60;;
7205;SDS011;3644;53.480;10.004;2023-10-09T02:04:54;3.53;;;2.50;;
7205;SDS011;3644;53.480;10.004;2023-10-09T02:07:49;2.80;;;2.10;;
7205;SDS011;3644;53.480;10.004;2023-10-09T02:10:18;2.50;;;2.10;;
7205;SDS011;3644;53.480;10.004;2023-10-09T02:12:57;2.90;;;1.90;;
7205;SDS011;3644;53.480;10.004;2023-10-09T02:15:23;5.00;;;3.00;;
7205;SDS011;3644;53.480;10.004;2023-10-09T02:18:17;2.10;;;1.90;;
7205;SDS011;3644;53.480;10.004;2023-10-09T02:20:47;7.60;;;2.53;;
7205;SDS011;3644;53.480;10.004;2023-10-09T02:23:29;4.20;;;2.47;;
7205;SDS011;3644;53.480;10.004;2023-10-09T02:26:04;2.67;;;2.43;;
7205;SDS011;3644;53.480;10.004;2023-10-09T02:28:33;4.90;;;2.20;;
7205;SDS011;3644;53.480;10.004;2023-10-09T02:31:00;4.70;;;2.50;;
7205;SDS011;3644;53.480;10.004;2023-10-09T02:33:34;2.70;;;2.00;;
7205;SDS011;3644;53.480;10.004;2023-10-09T02:36:01;3.33;;;2.50;;
7205;SDS011;3644;53.480;10.004;2023-10-09T02:38:30;1.93;;;1.83;;
7205;SDS011;3644;53.480;10.004;2023-10-09T02:41:00;1.83;;;1.70;;
7205;SDS011;3644;53.480;10.004;2023-10-09T02:43:30;3.60;;;1.90;;
7205;SDS011;3644;53.480;10.004;2023-10-09T02:46:09;3.87;;;2.50;;
7205;SDS011;3644;53.480;10.004;2023-10-09T02:48:40;2.67;;;2.37;;
7205;SDS011;3644;53.480;10.004;2023-10-09T02:51:10;3.77;;;2.30;;
7205;SDS011;3644;53.480;10.004;2023-10-09T02:54:08;3.90;;;2.77;;
7205;SDS011;3644;53.480;10.004;2023-10-09T02:56:44;5.43;;;2.60;;
7205;SDS011;3644;53.480;10.004;2023-10-09T02:59:12;10.00;;;2.47;;
7205;SDS011;3644;53.480;10.004;2023-10-09T03:01:39;4.70;;;2.47;;
7205;SDS011;3644;53.480;10.004;2023-10-09T03:04:06;2.93;;;2.57;;
7205;SDS011;3644;53.480;10.004;2023-10-09T03:06:35;3.87;;;2.20;;
7205;SDS011;3644;53.480;10.004;2023-10-09T03:09:14;3.30;;;2.73;;
7205;SDS011;3644;53.480;10.004;2023-10-09T03:11:44;3.30;;;2.70;;
7205;SDS011;3644;53.480;10.004;2023-10-09T03:14:11;2.90;;;2.70;;
7205;SDS011;3644;53.480;10.004;2023-10-09T03:16:37;13.27;;;3.00;;
7205;SDS011;3644;53.480;10.004;2023-10-09T03:19:03;3.60;;;2.20;;
7205;SDS011;3644;53.480;10.004;2023-10-09T03:21:28;6.50;;;2.37;;
7205;SDS011;3644;53.480;10.004;2023-10-09T03:23:54;2.20;;;2.00;;
7205;SDS011;3644;53.480;10.004;2023-10-09T03:26:21;2.60;;;2.40;;
7205;SDS011;3644;53.480;10.004;2023-10-09T03:28:50;2.60;;;2.30;;
7205;SDS011;3644;53.480;10.004;2023-10-09T03:31:17;2.73;;;2.53;;
7205;SDS011;3644;53.480;10.004;2023-10-09T03:33:43;3.03;;;2.53;;
7205;SDS011;3644;53.480;10.004;2023-10-09T03:36:08;3.33;;;2.30;;
7205;SDS011;3644;53.480;10.004;2023-10-09T03:38:34;2.97;;;2.27;;
7205;SDS011;3644;53.480;10.004;2023-10-09T03:41:02;3.40;;;2.30;;
7205;SDS011;3644;53.480;10.004;2023-10-09T03:43:34;2.77;;;2.50;;
7205;SDS011;3644;53.480;10.004;2023-10-09T03:46:10;3.30;;;2.20;;
7205;SDS011;3644;53.480;10.004;2023-10-09T03:48:56;4.30;;;2.40;;
7205;SDS011;3644;53.480;10.004;2023-10-09T03:51:22;4.70;;;3.03;;
7205;SDS011;3644;53.480;10.004;2023-10-09T03:53:48;7.50;;;2.70;;
7205;SDS011;3644;53.480;10.004;2023-10-09T03:56:14;2.30;;;1.93;;
7205;SDS011;3644;53.480;10.004;2023-10-09T03:58:44;2.67;;;2.30;;
7205;SDS011;3644;53.480;10.004;2023-10-09T04:01:18;2.47;;;2.27;;
7205;SDS011;3644;53.480;10.004;2023-10-09T04:03:55;7.03;;;2.67;;
7205;SDS011;3644;53.480;10.004;2023-10-09T04:06:24;4.37;;;2.13;;
7205;SDS011;3644;53.480;10.004;2023-10-09T04:08:57;4.83;;;2.50;;
7205;SDS011;3644;53.480;10.004;2023-10-09T04:11:47;2.37;;;2.23;;
7205;SDS011;3644;53.480;10.004;2023-10-09T04:14:34;3.50;;;2.60;;
7205;SDS011;3644;53.480;10.004;2023-10-09T04:17:00;4.60;;;2.50;;
7205;SDS011;3644;53.480;10.004;2023-10-09T04:19:31;6.43;;;1.97;;
7205;SDS011;3644;53.480;10.004;2023-10-09T04:22:13;3.93;;;2.70;;
7205;SDS011;3644;53.480;10.004;2023-10-09T04:24:51;3.77;;;2.30;;
7205;SDS011;3644;53.480;10.004;2023-10-09T04:27:16;4.70;;;2.40;;
7205;SDS011;3644;53.480;10.004;2023-10-09T04:29:42;3.20;;;2.00;;
7205;SDS011;3644;53.480;10.004;2023-10-09T04:32:12;7.83;;;2.00;;
7205;SDS011;3644;53.480;10.004;2023-10-09T04:34:41;2.60;;;1.90;;
7205;SDS011;3644;53.480;10.004;2023-10-09T04:37:14;2.97;;;2.50;;
7205;SDS011;3644;53.480;10.004;2023-10-09T04:39:40;5.40;;;2.67;;
7205;SDS011;3644;53.480;10.004;2023-10-09T04:42:12;5.07;;;3.50;;
7205;SDS011;3644;53.480;10.004;2023-10-09T04:44:51;2.20;;;1.77;;
7205;SDS011;3644;53.480;10.004;2023-10-09T04:47:37;5.13;;;2.30;;
7205;SDS011;3644;53.480;10.004;2023-10-09T04:52:37;5.00;;;2.40;;
7205;SDS011;3644;53.480;10.004;2023-10-09T04:55:02;6.80;;;2.20;;
7205;SDS011;3644;53.480;10.004;2023-10-09T04:57:38;7.07;;;2.60;;
7205;SDS011;3644;53.480;10.004;2023-10-09T05:00:11;2.33;;;2.13;;
7205;SDS011;3644;53.480;10.004;2023-10-09T05:02:49;2.60;;;2.03;;
7205;SDS011;3644;53.480;10.004;2023-10-09T05:05:48;2.33;;;1.70;;
7205;SDS011;3644;53.480;10.004;2023-10-09T05:08:23;3.37;;;2.07;;
7205;SDS011;3644;53.480;10.004;2023-10-09T05:10:52;3.13;;;2.40;;
7205;SDS011;3644;53.480;10.004;2023-10-09T05:16:06;5.97;;;2.70;;
7205;SDS011;3644;53.480;10.004;2023-10-09T05:18:38;2.13;;;1.80;;
7205;SDS011;3644;53.480;10.004;2023-10-09T05:21:04;7.03;;;1.70;;
7205;SDS011;3644;53.480;10.004;2023-10-09T05:23:41;1.90;;;1.80;;
7205;SDS011;3644;53.480;10.004;2023-10-09T05:26:14;2.30;;;1.87;;
7205;SDS011;3644;53.480;10.004;2023-10-09T05:28:58;5.07;;;2.77;;
7205;SDS011;3644;53.480;10.004;2023-10-09T05:31:24;7.60;;;2.93;;
7205;SDS011;3644;53.480;10.004;2023-10-09T05:34:11;4.43;;;2.20;;
7205;SDS011;3644;53.480;10.004;2023-10-09T05:36:44;7.40;;;2.23;;
7205;SDS011;3644;53.480;10.004;2023-10-09T05:39:12;3.80;;;2.37;;
7205;SDS011;3644;53.480;10.004;2023-10-09T05:42:05;2.63;;;2.13;;
7205;SDS011;3644;53.480;10.004;2023-10-09T05:44:37;11.93;;;2.40;;
7205;SDS011;3644;53.480;10.004;2023-10-09T05:47:11;4.67;;;2.47;;
7205;SDS011;3644;53.480;10.004;2023-10-09T05:49:55;6.37;;;2.60;;
7205;SDS011;3644;53.480;10.004;2023-10-09T05:52:47;1.83;;;1.73;;
7205;SDS011;3644;53.480;10.004;2023-10-09T05:57:51;3.80;;;2.30;;
7205;SDS011;3644;53.480;10.004;2023-10-09T06:00:20;4.17;;;2.60;;
7205;SDS011;3644;53.480;10.004;2023-10-09T06:03:04;8.10;;;2.47;;
7205;SDS011;3644;53.480;10.004;2023-10-09T06:05:49;7.27;;;2.30;;
7205;SDS011;3644;53.480;10.004;2023-10-09T06:08:22;3.03;;;2.00;;
7205;SDS011;3644;53.480;10.004;2023-10-09T06:10:54;2.73;;;2.10;;
7205;SDS011;3644;53.480;10.004;2023-10-09T06:13:39;3.27;;;2.47;;
7205;SDS011;3644;53.480;10.004;2023-10-09T06:16:11;4.70;;;2.07;;
7205;SDS011;3644;53.480;10.004;2023-10-09T06:18:56;2.90;;;2.27;;
7205;SDS011;3644;53.480;10.004;2023-10-09T06:21:34;3.83;;;2.50;;
7205;SDS011;3644;53.480;10.004;2023-10-09T06:24:32;2.40;;;2.20;;
7205;SDS011;3644;53.480;10.004;2023-10-09T06:27:07;5.00;;;2.57;;
7205;SDS011;3644;53.480;10.004;2023-10-09T06:29:39;2.60;;;2.10;;
7205;SDS011;3644;53.480;10.004;2023-10-09T06:32:14;6.73;;;2.83;;
7205;SDS011;3644;53.480;10.004;2023-10-09T06:34:58;3.27;;;2.30;;
7205;SDS011;3644;53.480;10.004;2023-10-09T06:43:05;3.53;;;2.30;;
7205;SDS011;3644;53.480;10.004;2023-10-09T06:45:43;4.03;;;2.17;;
7205;SDS011;3644;53.480;10.004;2023-10-09T06:48:09;4.03;;;2.43;;
7205;SDS011;3644;53.480;10.004;2023-10-09T06:50:54;3.73;;;2.50;;
7205;SDS011;3644;53.480;10.004;2023-10-09T06:53:39;4.23;;;2.80;;
7205;SDS011;3644;53.480;10.004;2023-10-09T06:58:58;2.37;;;2.17;;
7205;SDS011;3644;53.480;10.004;2023-10-09T07:01:28;3.77;;;2.20;;
7205;SDS011;3644;53.480;10.004;2023-10-09T07:04:03;6.00;;;2.50;;
7205;SDS011;3644;53.480;10.004;2023-10-09T07:06:47;2.47;;;2.27;;
7205;SDS011;3644;53.480;10.004;2023-10-09T07:09:13;7.00;;;2.50;;
7205;SDS011;3644;53.480;10.004;2023-10-09T07:11:43;5.50;;;2.80;;
7205;SDS011;3644;53.480;10.004;2023-10-09T07:17:01;2.90;;;2.67;;
7205;SDS011;3644;53.480;10.004;2023-10-09T07:19:46;6.40;;;2.90;;
7205;SDS011;3644;53.480;10.004;2023-10-09T07:22:12;3.37;;;2.50;;
7205;SDS011;3644;53.480;10.004;2023-10-09T07:24:50;6.60;;;2.80;;
7205;SDS011;3644;53.480;10.004;2023-10-09T07:27:28;3.27;;;2.70;;
7205;SDS011;3644;53.480;10.004;2023-10-09T07:30:14;4.00;;;2.33;;
7205;SDS011;3644;53.480;10.004;2023-10-09T07:33:04;2.50;;;2.30;;
7205;SDS011;3644;53.480;10.004;2023-10-09T07:35:37;4.47;;;2.87;;
7205;SDS011;3644;53.480;10.004;2023-10-09T07:38:07;2.87;;;2.40;;
7205;SDS011;3644;53.480;10.004;2023-10-09T07:40:36;3.73;;;3.20;;
7205;SDS011;3644;53.480;10.004;2023-10-09T07:43:24;4.27;;;3.17;;
7205;SDS011;3644;53.480;10.004;2023-10-09T07:45:53;3.57;;;3.00;;
7205;SDS011;3644;53.480;10.004;2023-10-09T07:48:39;3.50;;;2.87;;
7205;SDS011;3644;53.480;10.004;2023-10-09T07:51:17;3.90;;;3.50;;
7205;SDS011;3644;53.480;10.004;2023-10-09T07:53:51;3.60;;;3.30;;
7205;SDS011;3644;53.480;10.004;2023-10-09T07:56:32;3.00;;;2.70;;
7205;SDS011;3644;53.480;10.004;2023-10-09T07:59:03;3.30;;;3.00;;
7205;SDS011;3644;53.480;10.004;2023-10-09T08:01:35;2.70;;;2.50;;
7205;SDS011;3644;53.480;10.004;2023-10-09T08:04:23;3.37;;;2.77;;
7205;SDS011;3644;53.480;10.004;2023-10-09T08:07:08;2.17;;;1.97;;
7205;SDS011;3644;53.480;10.004;2023-10-09T08:09:41;2.93;;;2.73;;
7205;SDS011;3644;53.480;10.004;2023-10-09T08:12:13;3.40;;;2.63;;
7205;SDS011;3644;53.480;10.004;2023-10-09T08:15:00;3.27;;;3.00;;
7205;SDS011;3644;53.480;10.004;2023-10-09T08:17:44;2.77;;;2.57;;
7205;SDS011;3644;53.480;10.004;2023-10-09T08:20:23;6.73;;;2.47;;
7205;SDS011;3644;53.480;10.004;2023-10-09T08:23:01;2.63;;;2.53;;
7205;SDS011;3644;53.480;10.004;2023-10-09T08:25:29;2.53;;;2.33;;
7205;SDS011;3644;53.480;10.004;2023-10-09T08:28:00;3.37;;;2.90;;
7205;SDS011;3644;53.480;10.004;2023-10-09T08:30:39;2.90;;;2.47;;
7205;SDS011;3644;53.480;10.004;2023-10-09T08:33:16;2.27;;;2.07;;
7205;SDS011;3644;53.480;10.004;2023-10-09T08:35:50;2.50;;;2.27;;
7205;SDS011;3644;53.480;10.004;2023-10-09T08:38:20;4.13;;;2.80;;
7205;SDS011;3644;53.480;10.004;2023-10-09T08:40:49;2.53;;;2.33;;
7205;SDS011;3644;53.480;10.004;2023-10-09T08:43:19;2.77;;;2.57;;
7205;SDS011;3644;53.480;10.004;2023-10-09T08:45:49;2.90;;;2.70;;
7205;SDS011;3644;53.480;10.004;2023-10-09T08:48:18;4.73;;;2.40;;
7205;SDS011;3644;53.480;10.004;2023-10-09T08:50:47;9.67;;;3.60;;
7205;SDS011;3644;53.480;10.004;2023-10-09T08:53:14;3.10;;;2.80;;
7205;SDS011;3644;53.480;10.004;2023-10-09T08:55:41;8.80;;;2.90;;
7205;SDS011;3644;53.480;10.004;2023-10-09T08:58:08;2.90;;;2.70;;
7205;SDS011;3644;53.480;10.004;2023-10-09T09:00:45;3.53;;;3.23;;
7205;SDS011;3644;53.480;10.004;2023-10-09T09:03:12;3.43;;;3.13;;
7205;SDS011;3644;53.480;10.004;2023-10-09T09:05:45;5.17;;;2.77;;
7205;SDS011;3644;53.480;10.004;2023-10-09T09:08:23;3.30;;;3.00;;
7205;SDS011;3644;53.480;10.004;2023-10-09T09:13:41;2.60;;;2.40;;
7205;SDS011;3644;53.480;10.004;2023-10-09T09:16:40;2.83;;;2.67;;
7205;SDS011;3644;53.480;10.004;2023-10-09T09:19:05;3.80;;;2.80;;
7205;SDS011;3644;53.480;10.004;2023-10-09T09:21:34;2.77;;;2.50;;
7205;SDS011;3644;53.480;10.004;2023-10-09T09:24:05;3.30;;;2.47;;
7205;SDS011;3644;53.480;10.004;2023-10-09T09:26:48;2.97;;;2.77;;
7205;SDS011;3644;53.480;10.004;2023-10-09T09:29:46;4.03;;;2.70;;
7205;SDS011;3644;53.480;10.004;2023-10-09T09:32:28;2.63;;;2.40;;
7205;SDS011;3644;53.480;10.004;2023-10-09T09:35:00;4.07;;;3.30;;
7205;SDS011;3644;53.480;10.004;2023-10-09T09:37:29;4.30;;;2.90;;
7205;SDS011;3644;53.480;10.004;2023-10-09T09:39:58;3.03;;;2.50;;
7205;SDS011;3644;53.480;10.004;2023-10-09T09:42:39;2.30;;;2.20;;
7205;SDS011;3644;53.480;10.004;2023-10-09T09:45:09;2.87;;;2.67;;
7205;SDS011;3644;53.480;10.004;2023-10-09T09:47:36;4.20;;;2.30;;
7205;SDS011;3644;53.480;10.004;2023-10-09T09:50:02;2.50;;;2.30;;
7205;SDS011;3644;53.480;10.004;2023-10-09T09:52:37;3.43;;;2.57;;
7205;SDS011;3644;53.480;10.004;2023-10-09T09:55:04;2.77;;;2.30;;
7205;SDS011;3644;53.480;10.004;2023-10-09T09:57:32;2.53;;;2.33;;
7205;SDS011;3644;53.480;10.004;2023-10-09T10:00:04;5.20;;;3.00;;
7205;SDS011;3644;53.480;10.004;2023-10-09T10:02:42;3.13;;;1.70;;
7205;SDS011;3644;53.480;10.004;2023-10-09T10:05:10;2.70;;;2.50;;
7205;SDS011;3644;53.480;10.004;2023-10-09T10:07:40;2.30;;;2.20;;
7205;SDS011;3644;53.480;10.004;2023-10-09T10:13:02;2.57;;;2.37;;
7205;SDS011;3644;53.480;10.004;2023-10-09T10:18:22;2.47;;;2.27;;
7205;SDS011;3644;53.480;10.004;2023-10-09T10:21:09;2.40;;;2.20;;
7205;SDS011;3644;53.480;10.004;2023-10-09T10:24:01;2.93;;;2.37;;
7205;SDS011;3644;53.480;10.004;2023-10-09T10:26:35;2.03;;;1.93;;
7205;SDS011;3644;53.480;10.004;2023-10-09T10:29:13;1.87;;;1.73;;
7205;SDS011;3644;53.480;10.004;2023-10-09T10:31:51;3.00;;;2.70;;
7205;SDS011;3644;53.480;10.004;2023-10-09T10:34:25;2.07;;;1.97;;
7205;SDS011;3644;53.480;10.004;2023-10-09T10:36:51;2.00;;;1.90;;
7205;SDS011;3644;53.480;10.004;2023-10-09T10:39:23;2.00;;;1.90;;
7205;SDS011;3644;53.480;10.004;2023-10-09T10:42:07;2.37;;;2.17;;
7205;SDS011;3644;53.480;10.004;2023-10-09T10:44:53;2.87;;;2.67;;
7205;SDS011;3644;53.480;10.004;2023-10-09T10:47:19;1.80;;;1.70;;
7205;SDS011;3644;53.480;10.004;2023-10-09T10:49:57;2.10;;;2.00;;
7205;SDS011;3644;53.480;10.004;2023-10-09T10:52:26;2.67;;;2.47;;
7205;SDS011;3644;53.480;10.004;2023-10-09T10:55:07;2.70;;;2.30;;
7205;SDS011;3644;53.480;10.004;2023-10-09T10:57:42;2.50;;;2.30;;
7205;SDS011;3644;53.480;10.004;2023-10-09T11:00:25;2.50;;;2.13;;
7205;SDS011;3644;53.480;10.004;2023-10-09T11:03:10;3.00;;;2.20;;
7205;SDS011;3644;53.480;10.004;2023-10-09T11:05:44;1.93;;;1.80;;
7205;SDS011;3644;53.480;10.004;2023-10-09T11:08:15;2.13;;;2.03;;
7205;SDS011;3644;53.480;10.004;2023-10-09T11:10:47;1.77;;;1.67;;
7205;SDS011;3644;53.480;10.004;2023-10-09T11:13:25;1.80;;;1.70;;
7205;SDS011;3644;53.480;10.004;2023-10-09T11:15:55;2.20;;;2.10;;
7205;SDS011;3644;53.480;10.004;2023-10-09T11:18:39;1.90;;;1.80;;
7205;SDS011;3644;53.480;10.004;2023-10-09T11:21:12;2.13;;;1.70;;
7205;SDS011;3644;53.480;10.004;2023-10-09T11:23:39;1.50;;;1.40;;
7205;SDS011;3644;53.480;10.004;2023-10-09T11:26:22;1.97;;;1.70;;
7205;SDS011;3644;53.480;10.004;2023-10-09T11:29:06;1.80;;;1.70;;
7205;SDS011;3644;53.480;10.004;2023-10-09T11:34:25;1.60;;;1.50;;
7205;SDS011;3644;53.480;10.004;2023-10-09T11:36:55;2.10;;;1.80;;
7205;SDS011;3644;53.480;10.004;2023-10-09T11:39:26;2.37;;;2.17;;
7205;SDS011;3644;53.480;10.004;2023-10-09T11:42:08;2.57;;;2.30;;
7205;SDS011;3644;53.480;10.004;2023-10-09T11:44:34;2.40;;;2.20;;
7205;SDS011;3644;53.480;10.004;2023-10-09T11:47:04;3.80;;;1.97;;
7205;SDS011;3644;53.480;10.004;2023-10-09T11:49:57;2.40;;;2.20;;
7205;SDS011;3644;53.480;10.004;2023-10-09T11:52:27;1.80;;;1.70;;
7205;SDS011;3644;53.480;10.004;2023-10-09T11:55:00;3.80;;;2.40;;
7205;SDS011;3644;53.480;10.004;2023-10-09T11:57:31;2.60;;;2.40;;
7205;SDS011;3644;53.480;10.004;2023-10-09T11:59:59;3.00;;;2.37;;
7205;SDS011;3644;53.480;10.004;2023-10-09T12:02:25;2.03;;;1.93;;
7205;SDS011;3644;53.480;10.004;2023-10-09T12:04:51;2.00;;;1.90;;
7205;SDS011;3644;53.480;10.004;2023-10-09T12:07:20;2.60;;;2.40;;
7205;SDS011;3644;53.480;10.004;2023-10-09T12:09:47;2.47;;;2.30;;
7205;SDS011;3644;53.480;10.004;2023-10-09T12:12:13;2.67;;;2.47;;
7205;SDS011;3644;53.480;10.004;2023-10-09T12:14:39;2.70;;;2.50;;
7205;SDS011;3644;53.480;10.004;2023-10-09T12:17:04;3.03;;;2.83;;
7205;SDS011;3644;53.480;10.004;2023-10-09T12:19:40;3.80;;;3.50;;
7205;SDS011;3644;53.480;10.004;2023-10-09T12:22:06;3.50;;;2.70;;
7205;SDS011;3644;53.480;10.004;2023-10-09T12:24:41;5.43;;;2.63;;
7205;SDS011;3644;53.480;10.004;2023-10-09T12:27:08;2.60;;;1.97;;
7205;SDS011;3644;53.480;10.004;2023-10-09T12:29:36;2.70;;;2.40;;
7205;SDS011;3644;53.480;10.004;2023-10-09T12:32:02;14.23;;;2.87;;
7205;SDS011;3644;53.480;10.004;2023-10-09T12:34:28;2.40;;;2.20;;
7205;SDS011;3644;53.480;10.004;2023-10-09T12:36:56;3.07;;;2.70;;
7205;SDS011;3644;53.480;10.004;2023-10-09T12:39:28;2.53;;;2.33;;
7205;SDS011;3644;53.480;10.004;2023-10-09T12:41:58;2.47;;;2.27;;
7205;SDS011;3644;53.480;10.004;2023-10-09T12:44:31;3.90;;;2.43;;
7205;SDS011;3644;53.480;10.004;2023-10-09T12:47:06;2.60;;;1.90;;
7205;SDS011;3644;53.480;10.004;2023-10-09T12:49:32;2.47;;;2.27;;
7205;SDS011;3644;53.480;10.004;2023-10-09T12:51:58;3.53;;;2.30;;
7205;SDS011;3644;53.480;10.004;2023-10-09T12:54:27;3.93;;;2.97;;
7205;SDS011;3644;53.480;10.004;2023-10-09T12:56:56;2.63;;;2.43;;
7205;SDS011;3644;53.480;10.004;2023-10-09T12:59:24;3.63;;;2.60;;
7205;SDS011;3644;53.480;10.004;2023-10-09T13:01:49;3.23;;;2.93;;
7205;SDS011;3644;53.480;10.004;2023-10-09T13:04:22;7.83;;;2.57;;
7205;SDS011;3644;53.480;10.004;2023-10-09T13:06:49;3.13;;;2.50;;
7205;SDS011;3644;53.480;10.004;2023-10-09T13:09:19;2.37;;;1.90;;
7205;SDS011;3644;53.480;10.004;2023-10-09T13:11:59;2.60;;;2.40;;
7205;SDS011;3644;53.480;10.004;2023-10-09T13:14:28;4.53;;;2.77;;
7205;SDS011;3644;53.480;10.004;2023-10-09T13:16:56;3.03;;;2.83;;
7205;SDS011;3644;53.480;10.004;2023-10-09T13:19:22;2.80;;;2.60;;
7205;SDS011;3644;53.480;10.004;2023-10-09T13:21:49;3.10;;;2.90;;
7205;SDS011;3644;53.480;10.004;2023-10-09T13:24:15;3.60;;;2.73;;
7205;SDS011;3644;53.480;10.004;2023-10-09T13:26:41;2.50;;;2.30;;
7205;SDS011;3644;53.480;10.004;2023-10-09T13:29:09;2.63;;;2.07;;
7205;SDS011;3644;53.480;10.004;2023-10-09T13:31:37;2.70;;;2.47;;
7205;SDS011;3644;53.480;10.004;2023-10-09T13:34:05;1.93;;;1.80;;
7205;SDS011;3644;53.480;10.004;2023-10-09T13:36:40;2.37;;;2.17;;
7205;SDS011;3644;53.480;10.004;2023-10-09T13:39:14;2.20;;;2.10;;
7205;SDS011;3644;53.480;10.004;2023-10-09T13:41:59;2.93;;;2.43;;
7205;SDS011;3644;53.480;10.004;2023-10-09T13:44:29;2.40;;;2.20;;
7205;SDS011;3644;53.480;10.004;2023-10-09T13:46:56;2.40;;;2.13;;
7205;SDS011;3644;53.480;10.004;2023-10-09T13:49:23;2.57;;;2.37;;
7205;SDS011;3644;53.480;10.004;2023-10-09T13:51:54;2.53;;;2.33;;
7205;SDS011;3644;53.480;10.004;2023-10-09T13:54:25;2.40;;;2.20;;
7205;SDS011;3644;53.480;10.004;2023-10-09T13:56:57;1.93;;;1.83;;
7205;SDS011;3644;53.480;10.004;2023-10-09T13:59:29;2.57;;;2.07;;
7205;SDS011;3644;53.480;10.004;2023-10-09T14:01:55;2.30;;;2.00;;
7205;SDS011;3644;53.480;10.004;2023-10-09T14:04:21;2.00;;;1.80;;
7205;SDS011;3644;53.480;10.004;2023-10-09T14:06:48;2.30;;;2.10;;
7205;SDS011;3644;53.480;10.004;2023-10-09T14:09:14;1.80;;;1.70;;
7205;SDS011;3644;53.480;10.004;2023-10-09T14:12:15;2.17;;;2.07;;
7205;SDS011;3644;53.480;10.004;2023-10-09T14:14:44;2.10;;;1.70;;
7205;SDS011;3644;53.480;10.004;2023-10-09T14:17:17;2.13;;;1.93;;
7205;SDS011;3644;53.480;10.004;2023-10-09T14:19:48;2.17;;;2.07;;
7205;SDS011;3644;53.480;10.004;2023-10-09T14:22:20;2.20;;;2.10;;
7205;SDS011;3644;53.480;10.004;2023-10-09T14:24:49;2.37;;;2.17;;
7205;SDS011;3644;53.480;10.004;2023-10-09T14:27:20;2.13;;;2.03;;
7205;SDS011;3644;53.480;10.004;2023-10-09T14:29:50;2.00;;;1.83;;
7205;SDS011;3644;53.480;10.004;2023-10-09T14:32:17;2.47;;;1.70;;
7205;SDS011;3644;53.480;10.004;2023-10-09T14:34:42;2.33;;;2.13;;
7205;SDS011;3644;53.480;10.004;2023-10-09T14:37:14;2.17;;;1.97;;
7205;SDS011;3644;53.480;10.004;2023-10-09T14:39:41;2.37;;;2.20;;
7205;SDS011;3644;53.480;10.004;2023-10-09T14:42:07;3.27;;;1.90;;
7205;SDS011;3644;53.480;10.004;2023-10-09T14:44:36;2.67;;;2.20;;
7205;SDS011;3644;53.480;10.004;2023-10-09T14:47:03;2.13;;;1.90;;
7205;SDS011;3644;53.480;10.004;2023-10-09T14:49:32;2.80;;;2.30;;
7205;SDS011;3644;53.480;10.004;2023-10-09T14:52:02;3.00;;;2.70;;
7205;SDS011;3644;53.480;10.004;2023-10-09T14:54:34;3.73;;;2.50;;
7205;SDS011;3644;53.480;10.004;2023-10-09T14:56:59;3.83;;;2.47;;
7205;SDS011;3644;53.480;10.004;2023-10-09T14:59:25;2.40;;;1.90;;
7205;SDS011;3644;53.480;10.004;2023-10-09T15:01:51;3.80;;;2.23;;
7205;SDS011;3644;53.480;10.004;2023-10-09T15:04:19;3.20;;;2.90;;
7205;SDS011;3644;53.480;10.004;2023-10-09T15:06:45;2.20;;;2.00;;
7205;SDS011;3644;53.480;10.004;2023-10-09T15:09:14;2.70;;;2.50;;
7205;SDS011;3644;53.480;10.004;2023-10-09T15:11:53;2.90;;;2.43;;
7205;SDS011;3644;53.480;10.004;2023-10-09T15:14:19;2.40;;;2.20;;
7205;SDS011;3644;53.480;10.004;2023-10-09T15:16:45;4.43;;;2.67;;
7205;SDS011;3644;53.480;10.004;2023-10-09T15:19:11;2.17;;;1.97;;
7205;SDS011;3644;53.480;10.004;2023-10-09T15:21:37;4.23;;;3.43;;
7205;SDS011;3644;53.480;10.004;2023-10-09T15:24:10;7.63;;;6.80;;
7205;SDS011;3644;53.480;10.004;2023-10-09T15:26:44;8.00;;;5.63;;
7205;SDS011;3644;53.480;10.004;2023-10-09T15:29:17;4.80;;;3.63;;
7205;SDS011;3644;53.480;10.004;2023-10-09T15:31:44;14.63;;;3.57;;
7205;SDS011;3644;53.480;10.004;2023-10-09T15:34:11;5.40;;;3.33;;
7205;SDS011;3644;53.480;10.004;2023-10-09T15:36:37;4.37;;;3.17;;
7205;SDS011;3644;53.480;10.004;2023-10-09T15:39:05;7.93;;;3.00;;
7205;SDS011;3644;53.480;10.004;2023-10-09T15:41:33;6.10;;;3.03;;
7205;SDS011;3644;53.480;10.004;2023-10-09T15:43:59;4.83;;;3.50;;
7205;SDS011;3644;53.480;10.004;2023-10-09T15:46:26;3.50;;;3.20;;
7205;SDS011;3644;53.480;10.004;2023-10-09T15:48:52;5.07;;;3.90;;
7205;SDS011;3644;53.480;10.004;2023-10-09T15:51:18;6.30;;;4.00;;
7205;SDS011;3644;53.480;10.004;2023-10-09T15:53:45;6.03;;;3.90;;
7205;SDS011;3644;53.480;10.004;2023-10-09T15:56:11;8.43;;;4.10;;
7205;SDS011;3644;53.480;10.004;2023-10-09T15:58:41;5.03;;;3.10;;
7205;SDS011;3644;53.480;10.004;2023-10-09T16:01:11;9.57;;;4.83;;
7205;SDS011;3644;53.480;10.004;2023-10-09T16:03:42;49.87;;;20.13;;